Map

Track Data

SID SEASON NUMBER BASIN SUBBASIN NAME ISO_TIME NATURE LAT LON WMO_WIND WMO_PRES WMO_AGENCY TRACK_TYPE DIST2LAND LANDFALL IFLAG USA_AGENCY USA_ATCF_ID USA_LAT USA_LON USA_RECORD USA_STATUS USA_WIND USA_PRES USA_SSHS USA_R34_NE USA_R34_SE USA_R34_SW USA_R34_NW USA_R50_NE USA_R50_SE USA_R50_SW USA_R50_NW USA_R64_NE USA_R64_SE USA_R64_SW USA_R64_NW USA_POCI USA_ROCI USA_RMW USA_EYE TOKYO_LAT TOKYO_LON TOKYO_GRADE TOKYO_WIND TOKYO_PRES TOKYO_R50_DIR TOKYO_R50_LONG TOKYO_R50_SHORT TOKYO_R30_DIR TOKYO_R30_LONG TOKYO_R30_SHORT TOKYO_LAND CMA_LAT CMA_LON CMA_CAT CMA_WIND CMA_PRES HKO_LAT HKO_LON HKO_CAT HKO_WIND HKO_PRES NEWDELHI_LAT NEWDELHI_LON NEWDELHI_GRADE NEWDELHI_WIND NEWDELHI_PRES NEWDELHI_CI NEWDELHI_DP NEWDELHI_POCI REUNION_LAT REUNION_LON REUNION_TYPE REUNION_WIND REUNION_PRES REUNION_TNUM REUNION_CI REUNION_RMW REUNION_R34_NE REUNION_R34_SE REUNION_R34_SW REUNION_R34_NW REUNION_R50_NE REUNION_R50_SE REUNION_R50_SW REUNION_R50_NW REUNION_R64_NE REUNION_R64_SE REUNION_R64_SW REUNION_R64_NW BOM_LAT BOM_LON BOM_TYPE BOM_WIND BOM_PRES BOM_TNUM BOM_CI BOM_RMW BOM_R34_NE BOM_R34_SE BOM_R34_SW BOM_R34_NW BOM_R50_NE BOM_R50_SE BOM_R50_SW BOM_R50_NW BOM_R64_NE BOM_R64_SE BOM_R64_SW BOM_R64_NW BOM_ROCI BOM_POCI BOM_EYE BOM_POS_METHOD BOM_PRES_METHOD NADI_LAT NADI_LON NADI_CAT NADI_WIND NADI_PRES WELLINGTON_LAT WELLINGTON_LON WELLINGTON_WIND WELLINGTON_PRES DS824_LAT DS824_LON DS824_STAGE DS824_WIND DS824_PRES TD9636_LAT TD9636_LON TD9636_STAGE TD9636_WIND TD9636_PRES TD9635_LAT TD9635_LON TD9635_WIND TD9635_PRES TD9635_ROCI NEUMANN_LAT NEUMANN_LON NEUMANN_CLASS NEUMANN_WIND NEUMANN_PRES MLC_LAT MLC_LON MLC_CLASS MLC_WIND MLC_PRES USA_GUST BOM_GUST BOM_GUST_PER REUNION_GUST REUNION_GUST_PER USA_SEAHGT USA_SEARAD_NE USA_SEARAD_SE USA_SEARAD_SW USA_SEARAD_NW STORM_SPEED STORM_DIR
1933051S15065 1933 2 SI MM NOT_NAMED 1933-02-19 18:00:00 NR -14.7000 65.2000 main 998 952 __________O___ -1 -14.7000 65.2000 2 9 217
1933051S15065 1933 2 SI MM NOT_NAMED 1933-02-19 21:00:00 NR -15.0489 64.9319 main 952 908 __________P___ -1 -15.0489 64.9319 2 9 215
1933051S15065 1933 2 SI MM NOT_NAMED 1933-02-20 00:00:00 NR -15.4281 64.6807 main 908 865 __________P___ -1 -15.4281 64.6807 2 9 209
1933051S15065 1933 2 SI MM NOT_NAMED 1933-02-20 03:00:00 NR -15.8682 64.4641 main 858 810 __________P___ -1 -15.8682 64.4641 2 10 201
1933051S15065 1933 2 SI MM NOT_NAMED 1933-02-20 06:00:00 TS -16.4000 64.3000 main 810 767 _________OO___ -1 -16.4000 64.3000 TC 35 -16.4000 64.3000 2 12 193
1933051S15065 1933 2 SI MM NOT_NAMED 1933-02-20 09:00:00 TS -17.0369 64.1894 main 767 723 _________PP___ -1 -17.0351 64.1629 TC 35 -17.0378 64.2027 2 13 187
1933051S15065 1933 2 SI MM NOT_NAMED 1933-02-20 12:00:00 TS -17.7170 64.1413 main 723 704 _________OP___ -1 -17.7000 64.1000 TC 35 -17.7297 64.1724 2 14 0
1933051S15065 1933 2 SI MM NOT_NAMED 1933-02-20 15:00:00 TS -18.4008 64.1841 main 704 691 _________PP___ -1 -18.3950 64.1622 TC 35 -18.4067 64.2059 2 13 173
1933051S15065 1933 2 SI MM NOT_NAMED 1933-02-20 18:00:00 TS -19.0000 64.3000 main 695 691 _________OO___ -1 -19.0000 64.3000 TC 35 -19.0000 64.3000 2 10 167
1933051S15065 1933 2 SI MM NOT_NAMED 1933-02-20 21:00:00 TS -19.4022 64.4191 main 697 695 _________PP___ -1 -19.4024 64.4277 TC 35 -19.4019 64.4105 2 8 159
1933051S15065 1933 2 SI MM NOT_NAMED 1933-02-21 00:00:00 TS -19.7085 64.5905 main 713 712 _________OP___ -1 -19.7000 64.6000 TC 35 -19.7170 64.5810 2 7 148
1933051S15065 1933 2 SI MM NOT_NAMED 1933-02-21 03:00:00 TS -19.9918 64.8119 main 731 731 _________PP___ -1 -19.9849 64.8128 TC 35 -19.9986 64.8110 2 8 141
1933051S15065 1933 2 SI MM NOT_NAMED 1933-02-21 06:00:00 TS -20.3000 65.1000 main 761 761 _________OO___ -1 -20.3000 65.1000 TC 35 -20.3000 65.1000 2 10 141
1933051S15065 1933 2 SI MM NOT_NAMED 1933-02-21 09:00:00 TS -20.7340 65.4574 main 803 803 _________PP___ -1 -20.7350 65.4774 TC 35 -20.7330 65.4374 2 11 141
1933051S15065 1933 2 SI MM NOT_NAMED 1933-02-21 12:00:00 TS -21.1939 65.8655 main 848 848 _________OP___ -1 -21.2000 65.9000 TC 35 -21.1877 65.8311 2 12 139
1933051S15065 1933 2 SI MM NOT_NAMED 1933-02-21 15:00:00 TS -21.6267 66.2797 main 894 894 _________PP___ -1 -21.6299 66.3001 TC 35 -21.6235 66.2593 2 11 136
1933051S15065 1933 2 SI MM NOT_NAMED 1933-02-21 18:00:00 TS -22.0000 66.7000 main 941 941 _________OO___ -1 -22.0000 66.7000 TC 35 -22.0000 66.7000 2 10 131
1933051S15065 1933 2 SI MM NOT_NAMED 1933-02-21 21:00:00 TS -22.2875 67.1135 main 988 988 _________PP___ -1 -22.2873 67.0927 TC 35 -22.2877 67.1344 2 9 123
1933051S15065 1933 2 SI MM NOT_NAMED 1933-02-22 00:00:00 TS -22.5002 67.5303 main 1033 1033 _________OP___ -1 -22.5000 67.5000 TC 35 -22.5005 67.5607 2 9 116
1933051S15065 1933 2 SI MM NOT_NAMED 1933-02-22 03:00:00 TS -22.6629 67.9607 main 1088 1088 _________PP___ -1 -22.6628 67.9398 TC 35 -22.6631 67.9815 2 9 111
1933051S15065 1933 2 SI MM NOT_NAMED 1933-02-22 06:00:00 TS -22.8000 68.4000 main 1130 _________OO___ -1 -22.8000 68.4000 TC 35 -22.8000 68.4000 2 9 109

About IBTrACS Database

This database is a web-friendly format of International Best Track Archive for Climate Stewardship (IBTrACS), a global best track data archive curated by NOAA dating back to 1842.

Updated: 2021-10-19